sensor_id;sensor_type;location;lat;lon;timestamp;P1;durP1;ratioP1;P2;durP2;ratioP2
4563;SDS011;2294;51.818;8.484;2023-12-20T00:02:17;11.50;;;5.33;;
4563;SDS011;2294;51.818;8.484;2023-12-20T00:04:44;11.47;;;6.70;;
4563;SDS011;2294;51.818;8.484;2023-12-20T00:07:13;15.70;;;6.07;;
4563;SDS011;2294;51.818;8.484;2023-12-20T00:09:40;10.07;;;5.97;;
4563;SDS011;2294;51.818;8.484;2023-12-20T00:12:08;12.53;;;5.80;;
4563;SDS011;2294;51.818;8.484;2023-12-20T00:14:35;13.07;;;5.70;;
4563;SDS011;2294;51.818;8.484;2023-12-20T00:17:03;8.87;;;4.90;;
4563;SDS011;2294;51.818;8.484;2023-12-20T00:19:30;8.67;;;5.67;;
4563;SDS011;2294;51.818;8.484;2023-12-20T00:21:57;9.83;;;4.40;;
4563;SDS011;2294;51.818;8.484;2023-12-20T00:24:27;9.73;;;5.50;;
4563;SDS011;2294;51.818;8.484;2023-12-20T00:26:54;8.33;;;4.50;;
4563;SDS011;2294;51.818;8.484;2023-12-20T00:29:22;13.50;;;4.60;;
4563;SDS011;2294;51.818;8.484;2023-12-20T00:31:49;12.67;;;4.97;;
4563;SDS011;2294;51.818;8.484;2023-12-20T00:34:16;9.40;;;5.30;;
4563;SDS011;2294;51.818;8.484;2023-12-20T00:36:43;11.03;;;4.87;;
4563;SDS011;2294;51.818;8.484;2023-12-20T00:39:11;12.63;;;4.43;;
4563;SDS011;2294;51.818;8.484;2023-12-20T00:41:39;16.70;;;5.03;;
4563;SDS011;2294;51.818;8.484;2023-12-20T00:44:07;10.37;;;4.97;;
4563;SDS011;2294;51.818;8.484;2023-12-20T00:46:34;13.17;;;4.90;;
4563;SDS011;2294;51.818;8.484;2023-12-20T00:49:01;9.00;;;4.00;;
4563;SDS011;2294;51.818;8.484;2023-12-20T00:51:28;9.37;;;4.00;;
4563;SDS011;2294;51.818;8.484;2023-12-20T00:53:56;8.73;;;4.17;;
4563;SDS011;2294;51.818;8.484;2023-12-20T00:56:23;9.90;;;3.80;;
4563;SDS011;2294;51.818;8.484;2023-12-20T00:58:51;6.50;;;3.70;;
4563;SDS011;2294;51.818;8.484;2023-12-20T01:01:19;9.20;;;3.73;;
4563;SDS011;2294;51.818;8.484;2023-12-20T01:03:45;13.10;;;4.13;;
4563;SDS011;2294;51.818;8.484;2023-12-20T01:06:13;6.20;;;3.13;;
4563;SDS011;2294;51.818;8.484;2023-12-20T01:08:40;7.70;;;3.27;;
4563;SDS011;2294;51.818;8.484;2023-12-20T01:11:08;6.33;;;3.00;;
4563;SDS011;2294;51.818;8.484;2023-12-20T01:13:35;13.70;;;3.23;;
4563;SDS011;2294;51.818;8.484;2023-12-20T01:16:04;10.73;;;3.63;;
4563;SDS011;2294;51.818;8.484;2023-12-20T01:18:31;11.93;;;3.93;;
4563;SDS011;2294;51.818;8.484;2023-12-20T01:21:01;6.87;;;4.17;;
4563;SDS011;2294;51.818;8.484;2023-12-20T01:23:29;6.13;;;3.33;;
4563;SDS011;2294;51.818;8.484;2023-12-20T01:25:56;6.80;;;3.10;;
4563;SDS011;2294;51.818;8.484;2023-12-20T01:28:24;5.70;;;3.00;;
4563;SDS011;2294;51.818;8.484;2023-12-20T01:30:52;4.17;;;2.57;;
4563;SDS011;2294;51.818;8.484;2023-12-20T01:33:21;10.60;;;3.37;;
4563;SDS011;2294;51.818;8.484;2023-12-20T01:35:48;5.43;;;2.20;;
4563;SDS011;2294;51.818;8.484;2023-12-20T01:38:15;5.63;;;3.20;;
4563;SDS011;2294;51.818;8.484;2023-12-20T01:40:43;10.93;;;2.80;;
4563;SDS011;2294;51.818;8.484;2023-12-20T01:43:11;16.53;;;3.80;;
4563;SDS011;2294;51.818;8.484;2023-12-20T01:45:38;7.50;;;3.77;;
4563;SDS011;2294;51.818;8.484;2023-12-20T01:48:06;6.30;;;3.30;;
4563;SDS011;2294;51.818;8.484;2023-12-20T01:50:36;7.70;;;3.67;;
4563;SDS011;2294;51.818;8.484;2023-12-20T01:53:03;9.43;;;3.53;;
4563;SDS011;2294;51.818;8.484;2023-12-20T01:55:33;7.80;;;3.47;;
4563;SDS011;2294;51.818;8.484;2023-12-20T01:58:01;11.87;;;4.00;;
4563;SDS011;2294;51.818;8.484;2023-12-20T02:00:29;10.53;;;3.63;;
4563;SDS011;2294;51.818;8.484;2023-12-20T02:02:57;9.47;;;3.90;;
4563;SDS011;2294;51.818;8.484;2023-12-20T02:05:27;9.90;;;3.37;;
4563;SDS011;2294;51.818;8.484;2023-12-20T02:07:56;7.33;;;3.23;;
4563;SDS011;2294;51.818;8.484;2023-12-20T02:10:23;7.03;;;3.60;;
4563;SDS011;2294;51.818;8.484;2023-12-20T02:12:51;6.60;;;3.13;;
4563;SDS011;2294;51.818;8.484;2023-12-20T02:15:18;6.77;;;3.27;;
4563;SDS011;2294;51.818;8.484;2023-12-20T02:17:46;11.80;;;3.60;;
4563;SDS011;2294;51.818;8.484;2023-12-20T02:20:13;8.17;;;3.30;;
4563;SDS011;2294;51.818;8.484;2023-12-20T02:22:42;7.87;;;3.30;;
4563;SDS011;2294;51.818;8.484;2023-12-20T02:25:09;7.73;;;3.23;;
4563;SDS011;2294;51.818;8.484;2023-12-20T02:27:37;16.23;;;3.63;;
4563;SDS011;2294;51.818;8.484;2023-12-20T02:30:04;5.90;;;3.37;;
4563;SDS011;2294;51.818;8.484;2023-12-20T02:32:32;10.10;;;3.77;;
4563;SDS011;2294;51.818;8.484;2023-12-20T02:35:00;7.60;;;4.20;;
4563;SDS011;2294;51.818;8.484;2023-12-20T02:37:27;8.50;;;4.10;;
4563;SDS011;2294;51.818;8.484;2023-12-20T02:39:56;10.90;;;4.33;;
4563;SDS011;2294;51.818;8.484;2023-12-20T02:42:23;9.67;;;3.77;;
4563;SDS011;2294;51.818;8.484;2023-12-20T02:44:50;10.23;;;4.17;;
4563;SDS011;2294;51.818;8.484;2023-12-20T02:47:17;9.40;;;4.57;;
4563;SDS011;2294;51.818;8.484;2023-12-20T02:49:45;11.90;;;4.67;;
4563;SDS011;2294;51.818;8.484;2023-12-20T02:52:12;9.37;;;3.87;;
4563;SDS011;2294;51.818;8.484;2023-12-20T02:54:39;8.47;;;4.57;;
4563;SDS011;2294;51.818;8.484;2023-12-20T02:57:08;13.43;;;4.17;;
4563;SDS011;2294;51.818;8.484;2023-12-20T02:59:35;8.10;;;4.43;;
4563;SDS011;2294;51.818;8.484;2023-12-20T03:02:03;7.33;;;3.37;;
4563;SDS011;2294;51.818;8.484;2023-12-20T03:04:30;8.73;;;3.80;;
4563;SDS011;2294;51.818;8.484;2023-12-20T03:06:57;14.33;;;4.53;;
4563;SDS011;2294;51.818;8.484;2023-12-20T03:09:24;8.40;;;4.20;;
4563;SDS011;2294;51.818;8.484;2023-12-20T03:11:52;9.67;;;4.70;;
4563;SDS011;2294;51.818;8.484;2023-12-20T03:14:21;12.43;;;5.80;;
4563;SDS011;2294;51.818;8.484;2023-12-20T03:16:49;14.43;;;5.20;;
4563;SDS011;2294;51.818;8.484;2023-12-20T03:19:16;16.50;;;5.50;;
4563;SDS011;2294;51.818;8.484;2023-12-20T03:21:44;12.40;;;6.00;;
4563;SDS011;2294;51.818;8.484;2023-12-20T03:24:11;12.97;;;5.57;;
4563;SDS011;2294;51.818;8.484;2023-12-20T03:26:38;11.80;;;5.77;;
4563;SDS011;2294;51.818;8.484;2023-12-20T03:29:05;11.97;;;5.13;;
4563;SDS011;2294;51.818;8.484;2023-12-20T03:31:34;8.67;;;5.10;;
4563;SDS011;2294;51.818;8.484;2023-12-20T03:34:01;14.20;;;5.87;;
4563;SDS011;2294;51.818;8.484;2023-12-20T03:36:29;7.67;;;4.73;;
4563;SDS011;2294;51.818;8.484;2023-12-20T03:38:55;13.93;;;5.43;;
4563;SDS011;2294;51.818;8.484;2023-12-20T03:41:22;7.00;;;4.50;;
4563;SDS011;2294;51.818;8.484;2023-12-20T03:43:49;14.30;;;4.90;;
4563;SDS011;2294;51.818;8.484;2023-12-20T03:46:17;12.27;;;5.00;;
4563;SDS011;2294;51.818;8.484;2023-12-20T03:48:45;8.90;;;4.57;;
4563;SDS011;2294;51.818;8.484;2023-12-20T03:51:13;8.83;;;5.03;;
4563;SDS011;2294;51.818;8.484;2023-12-20T03:53:40;15.70;;;5.40;;
4563;SDS011;2294;51.818;8.484;2023-12-20T03:56:07;7.70;;;3.93;;
4563;SDS011;2294;51.818;8.484;2023-12-20T03:58:34;9.23;;;3.63;;
4563;SDS011;2294;51.818;8.484;2023-12-20T04:01:02;9.73;;;4.33;;
4563;SDS011;2294;51.818;8.484;2023-12-20T04:03:29;8.27;;;4.30;;
4563;SDS011;2294;51.818;8.484;2023-12-20T04:05:58;12.33;;;4.67;;
4563;SDS011;2294;51.818;8.484;2023-12-20T04:08:25;14.73;;;4.87;;
4563;SDS011;2294;51.818;8.484;2023-12-20T04:10:52;11.90;;;4.90;;
4563;SDS011;2294;51.818;8.484;2023-12-20T04:13:20;14.10;;;4.30;;
4563;SDS011;2294;51.818;8.484;2023-12-20T04:15:47;6.57;;;3.37;;
4563;SDS011;2294;51.818;8.484;2023-12-20T04:18:16;12.70;;;4.30;;
4563;SDS011;2294;51.818;8.484;2023-12-20T04:20:43;13.40;;;5.07;;
4563;SDS011;2294;51.818;8.484;2023-12-20T04:23:12;14.87;;;4.33;;
4563;SDS011;2294;51.818;8.484;2023-12-20T04:25:39;11.90;;;3.87;;
4563;SDS011;2294;51.818;8.484;2023-12-20T04:28:06;10.07;;;4.30;;
4563;SDS011;2294;51.818;8.484;2023-12-20T04:30:34;15.90;;;3.70;;
4563;SDS011;2294;51.818;8.484;2023-12-20T04:33:01;16.23;;;3.70;;
4563;SDS011;2294;51.818;8.484;2023-12-20T04:35:28;13.67;;;3.53;;
4563;SDS011;2294;51.818;8.484;2023-12-20T04:37:56;18.30;;;3.30;;
4563;SDS011;2294;51.818;8.484;2023-12-20T04:40:24;16.47;;;3.47;;
4563;SDS011;2294;51.818;8.484;2023-12-20T04:42:52;16.37;;;4.07;;
4563;SDS011;2294;51.818;8.484;2023-12-20T04:45:19;13.73;;;4.03;;
4563;SDS011;2294;51.818;8.484;2023-12-20T04:47:46;7.13;;;3.07;;
4563;SDS011;2294;51.818;8.484;2023-12-20T04:50:13;11.33;;;3.10;;
4563;SDS011;2294;51.818;8.484;2023-12-20T04:52:41;8.60;;;3.20;;
4563;SDS011;2294;51.818;8.484;2023-12-20T04:55:09;20.30;;;3.80;;
4563;SDS011;2294;51.818;8.484;2023-12-20T04:57:37;15.67;;;2.97;;
4563;SDS011;2294;51.818;8.484;2023-12-20T05:00:05;8.97;;;4.03;;
4563;SDS011;2294;51.818;8.484;2023-12-20T05:02:33;18.73;;;3.60;;
4563;SDS011;2294;51.818;8.484;2023-12-20T05:05:01;10.33;;;3.03;;
4563;SDS011;2294;51.818;8.484;2023-12-20T05:07:28;11.13;;;3.13;;
4563;SDS011;2294;51.818;8.484;2023-12-20T05:09:55;10.60;;;3.37;;
4563;SDS011;2294;51.818;8.484;2023-12-20T05:12:23;14.80;;;4.30;;
4563;SDS011;2294;51.818;8.484;2023-12-20T05:14:52;16.23;;;3.03;;
4563;SDS011;2294;51.818;8.484;2023-12-20T05:17:19;11.23;;;3.43;;
4563;SDS011;2294;51.818;8.484;2023-12-20T05:19:47;9.40;;;3.90;;
4563;SDS011;2294;51.818;8.484;2023-12-20T05:22:14;10.30;;;4.10;;
4563;SDS011;2294;51.818;8.484;2023-12-20T05:24:42;14.77;;;3.60;;
4563;SDS011;2294;51.818;8.484;2023-12-20T05:27:09;9.27;;;3.87;;
4563;SDS011;2294;51.818;8.484;2023-12-20T05:29:37;6.83;;;3.73;;
4563;SDS011;2294;51.818;8.484;2023-12-20T05:32:06;11.93;;;4.33;;
4563;SDS011;2294;51.818;8.484;2023-12-20T05:34:33;13.10;;;4.57;;
4563;SDS011;2294;51.818;8.484;2023-12-20T05:37:00;9.63;;;4.40;;
4563;SDS011;2294;51.818;8.484;2023-12-20T05:39:27;8.60;;;4.33;;
4563;SDS011;2294;51.818;8.484;2023-12-20T05:41:56;12.30;;;4.07;;
4563;SDS011;2294;51.818;8.484;2023-12-20T05:44:23;13.60;;;4.77;;
4563;SDS011;2294;51.818;8.484;2023-12-20T05:46:49;8.70;;;3.87;;
4563;SDS011;2294;51.818;8.484;2023-12-20T05:49:18;15.13;;;3.80;;
4563;SDS011;2294;51.818;8.484;2023-12-20T05:51:46;15.87;;;5.67;;
4563;SDS011;2294;51.818;8.484;2023-12-20T05:54:14;24.77;;;4.57;;
4563;SDS011;2294;51.818;8.484;2023-12-20T05:56:41;25.07;;;4.50;;
4563;SDS011;2294;51.818;8.484;2023-12-20T05:59:08;21.17;;;3.77;;
4563;SDS011;2294;51.818;8.484;2023-12-20T06:01:35;14.70;;;5.47;;
4563;SDS011;2294;51.818;8.484;2023-12-20T06:04:03;10.67;;;4.03;;
4563;SDS011;2294;51.818;8.484;2023-12-20T06:06:32;25.80;;;4.53;;
4563;SDS011;2294;51.818;8.484;2023-12-20T06:08:59;10.93;;;3.33;;
4563;SDS011;2294;51.818;8.484;2023-12-20T06:11:28;24.87;;;4.90;;
4563;SDS011;2294;51.818;8.484;2023-12-20T06:13:55;16.20;;;5.10;;
4563;SDS011;2294;51.818;8.484;2023-12-20T06:16:22;12.00;;;4.50;;
4563;SDS011;2294;51.818;8.484;2023-12-20T06:18:49;11.73;;;4.77;;
4563;SDS011;2294;51.818;8.484;2023-12-20T06:21:17;13.40;;;4.50;;
4563;SDS011;2294;51.818;8.484;2023-12-20T06:23:46;15.93;;;5.07;;
4563;SDS011;2294;51.818;8.484;2023-12-20T06:26:13;12.33;;;5.00;;
4563;SDS011;2294;51.818;8.484;2023-12-20T06:28:40;9.63;;;2.27;;
4563;SDS011;2294;51.818;8.484;2023-12-20T06:31:08;16.47;;;5.40;;
4563;SDS011;2294;51.818;8.484;2023-12-20T06:33:35;19.37;;;5.30;;
4563;SDS011;2294;51.818;8.484;2023-12-20T06:36:03;11.60;;;5.13;;
4563;SDS011;2294;51.818;8.484;2023-12-20T06:38:30;18.53;;;5.13;;
4563;SDS011;2294;51.818;8.484;2023-12-20T06:40:59;15.97;;;6.20;;
4563;SDS011;2294;51.818;8.484;2023-12-20T06:43:26;10.43;;;4.70;;
4563;SDS011;2294;51.818;8.484;2023-12-20T06:45:54;7.80;;;3.67;;
4563;SDS011;2294;51.818;8.484;2023-12-20T06:48:21;24.00;;;5.97;;
4563;SDS011;2294;51.818;8.484;2023-12-20T06:50:48;16.37;;;5.10;;
4563;SDS011;2294;51.818;8.484;2023-12-20T06:53:16;13.70;;;4.33;;
4563;SDS011;2294;51.818;8.484;2023-12-20T06:55:43;9.00;;;4.40;;
4563;SDS011;2294;51.818;8.484;2023-12-20T06:58:12;29.93;;;5.30;;
4563;SDS011;2294;51.818;8.484;2023-12-20T07:00:39;15.03;;;4.87;;
4563;SDS011;2294;51.818;8.484;2023-12-20T07:03:06;15.07;;;4.70;;
4563;SDS011;2294;51.818;8.484;2023-12-20T07:05:34;18.00;;;6.43;;
4563;SDS011;2294;51.818;8.484;2023-12-20T07:08:01;23.33;;;4.70;;
4563;SDS011;2294;51.818;8.484;2023-12-20T07:10:28;13.73;;;6.43;;
4563;SDS011;2294;51.818;8.484;2023-12-20T07:12:56;16.73;;;7.40;;
4563;SDS011;2294;51.818;8.484;2023-12-20T07:15:24;18.13;;;6.37;;
4563;SDS011;2294;51.818;8.484;2023-12-20T07:17:52;17.57;;;7.33;;
4563;SDS011;2294;51.818;8.484;2023-12-20T07:20:19;17.90;;;7.00;;
4563;SDS011;2294;51.818;8.484;2023-12-20T07:22:46;19.10;;;7.60;;
4563;SDS011;2294;51.818;8.484;2023-12-20T07:25:13;25.10;;;8.70;;
4563;SDS011;2294;51.818;8.484;2023-12-20T07:27:41;22.13;;;6.60;;
4563;SDS011;2294;51.818;8.484;2023-12-20T07:30:08;9.53;;;5.00;;
4563;SDS011;2294;51.818;8.484;2023-12-20T07:32:38;22.87;;;6.80;;
4563;SDS011;2294;51.818;8.484;2023-12-20T07:35:05;11.73;;;5.70;;
4563;SDS011;2294;51.818;8.484;2023-12-20T07:37:33;16.97;;;7.47;;
4563;SDS011;2294;51.818;8.484;2023-12-20T07:40:00;17.13;;;7.87;;
4563;SDS011;2294;51.818;8.484;2023-12-20T07:42:28;12.00;;;7.53;;
4563;SDS011;2294;51.818;8.484;2023-12-20T07:44:55;33.23;;;10.07;;
4563;SDS011;2294;51.818;8.484;2023-12-20T07:47:23;27.00;;;9.20;;
4563;SDS011;2294;51.818;8.484;2023-12-20T07:49:52;12.10;;;4.90;;
4563;SDS011;2294;51.818;8.484;2023-12-20T07:52:19;18.97;;;8.40;;
4563;SDS011;2294;51.818;8.484;2023-12-20T07:54:47;12.47;;;7.60;;
4563;SDS011;2294;51.818;8.484;2023-12-20T07:57:14;26.97;;;8.30;;
4563;SDS011;2294;51.818;8.484;2023-12-20T07:59:41;31.50;;;9.10;;
4563;SDS011;2294;51.818;8.484;2023-12-20T08:02:09;14.77;;;7.73;;
4563;SDS011;2294;51.818;8.484;2023-12-20T08:04:36;28.17;;;8.37;;
4563;SDS011;2294;51.818;8.484;2023-12-20T08:07:05;24.83;;;9.40;;
4563;SDS011;2294;51.818;8.484;2023-12-20T08:09:33;19.30;;;8.90;;
4563;SDS011;2294;51.818;8.484;2023-12-20T08:12:02;25.77;;;8.40;;
4563;SDS011;2294;51.818;8.484;2023-12-20T08:14:29;15.97;;;8.63;;
4563;SDS011;2294;51.818;8.484;2023-12-20T08:16:56;20.83;;;10.23;;
4563;SDS011;2294;51.818;8.484;2023-12-20T08:19:23;18.30;;;8.70;;
4563;SDS011;2294;51.818;8.484;2023-12-20T08:21:51;24.27;;;7.73;;
4563;SDS011;2294;51.818;8.484;2023-12-20T08:24:19;24.63;;;8.73;;
4563;SDS011;2294;51.818;8.484;2023-12-20T08:26:47;20.80;;;8.00;;
4563;SDS011;2294;51.818;8.484;2023-12-20T08:29:14;20.40;;;8.97;;
4563;SDS011;2294;51.818;8.484;2023-12-20T08:31:41;21.73;;;9.37;;
4563;SDS011;2294;51.818;8.484;2023-12-20T08:34:09;19.43;;;8.00;;
4563;SDS011;2294;51.818;8.484;2023-12-20T08:36:37;23.03;;;9.17;;
4563;SDS011;2294;51.818;8.484;2023-12-20T08:39:04;20.87;;;7.93;;
4563;SDS011;2294;51.818;8.484;2023-12-20T08:41:34;6.97;;;4.50;;
4563;SDS011;2294;51.818;8.484;2023-12-20T08:44:02;19.67;;;8.10;;
4563;SDS011;2294;51.818;8.484;2023-12-20T08:46:29;17.50;;;7.03;;
4563;SDS011;2294;51.818;8.484;2023-12-20T08:48:57;16.43;;;7.40;;
4563;SDS011;2294;51.818;8.484;2023-12-20T08:51:25;28.43;;;8.60;;
4563;SDS011;2294;51.818;8.484;2023-12-20T08:53:53;29.40;;;7.10;;
4563;SDS011;2294;51.818;8.484;2023-12-20T08:56:21;25.50;;;7.50;;
4563;SDS011;2294;51.818;8.484;2023-12-20T08:58:49;16.60;;;7.30;;
4563;SDS011;2294;51.818;8.484;2023-12-20T09:01:17;24.93;;;7.17;;
4563;SDS011;2294;51.818;8.484;2023-12-20T09:03:44;12.33;;;6.40;;
4563;SDS011;2294;51.818;8.484;2023-12-20T09:06:11;19.50;;;7.70;;
4563;SDS011;2294;51.818;8.484;2023-12-20T09:08:39;25.10;;;7.47;;
4563;SDS011;2294;51.818;8.484;2023-12-20T09:11:07;17.97;;;5.90;;
4563;SDS011;2294;51.818;8.484;2023-12-20T09:13:34;17.10;;;7.37;;
4563;SDS011;2294;51.818;8.484;2023-12-20T09:16:03;11.57;;;7.00;;
4563;SDS011;2294;51.818;8.484;2023-12-20T09:18:30;18.73;;;6.40;;
4563;SDS011;2294;51.818;8.484;2023-12-20T09:20:58;18.33;;;6.50;;
4563;SDS011;2294;51.818;8.484;2023-12-20T09:23:25;21.87;;;8.53;;
4563;SDS011;2294;51.818;8.484;2023-12-20T09:25:52;12.63;;;6.03;;
4563;SDS011;2294;51.818;8.484;2023-12-20T09:28:20;18.70;;;5.03;;
4563;SDS011;2294;51.818;8.484;2023-12-20T09:30:47;22.47;;;7.43;;
4563;SDS011;2294;51.818;8.484;2023-12-20T09:33:16;12.93;;;6.33;;
4563;SDS011;2294;51.818;8.484;2023-12-20T09:35:43;16.43;;;6.70;;
4563;SDS011;2294;51.818;8.484;2023-12-20T09:38:10;13.77;;;6.37;;
4563;SDS011;2294;51.818;8.484;2023-12-20T09:40:40;16.93;;;8.03;;
4563;SDS011;2294;51.818;8.484;2023-12-20T09:43:08;11.80;;;6.60;;
4563;SDS011;2294;51.818;8.484;2023-12-20T09:45:37;28.73;;;8.40;;
4563;SDS011;2294;51.818;8.484;2023-12-20T09:48:06;17.90;;;7.50;;
4563;SDS011;2294;51.818;8.484;2023-12-20T09:50:35;22.40;;;6.93;;
4563;SDS011;2294;51.818;8.484;2023-12-20T09:53:03;25.37;;;10.13;;
4563;SDS011;2294;51.818;8.484;2023-12-20T09:55:34;14.00;;;7.00;;
4563;SDS011;2294;51.818;8.484;2023-12-20T09:58:02;13.07;;;6.90;;
4563;SDS011;2294;51.818;8.484;2023-12-20T10:00:31;19.03;;;8.53;;
4563;SDS011;2294;51.818;8.484;2023-12-20T10:02:59;15.00;;;7.10;;
4563;SDS011;2294;51.818;8.484;2023-12-20T10:05:27;12.97;;;7.50;;
4563;SDS011;2294;51.818;8.484;2023-12-20T10:07:56;15.00;;;6.50;;
4563;SDS011;2294;51.818;8.484;2023-12-20T10:10:23;19.20;;;8.07;;
4563;SDS011;2294;51.818;8.484;2023-12-20T10:13:00;14.60;;;7.47;;
4563;SDS011;2294;51.818;8.484;2023-12-20T10:15:28;15.00;;;7.50;;
4563;SDS011;2294;51.818;8.484;2023-12-20T10:17:57;17.67;;;7.33;;
4563;SDS011;2294;51.818;8.484;2023-12-20T10:20:24;34.17;;;8.03;;
4563;SDS011;2294;51.818;8.484;2023-12-20T10:22:55;11.20;;;5.57;;
4563;SDS011;2294;51.818;8.484;2023-12-20T10:25:23;18.53;;;7.83;;
4563;SDS011;2294;51.818;8.484;2023-12-20T10:27:50;13.53;;;6.43;;
4563;SDS011;2294;51.818;8.484;2023-12-20T10:30:35;12.47;;;5.83;;
4563;SDS011;2294;51.818;8.484;2023-12-20T10:33:02;16.57;;;7.17;;
4563;SDS011;2294;51.818;8.484;2023-12-20T10:35:29;20.43;;;8.30;;
4563;SDS011;2294;51.818;8.484;2023-12-20T10:37:58;22.90;;;6.53;;
4563;SDS011;2294;51.818;8.484;2023-12-20T10:40:29;16.53;;;7.80;;
4563;SDS011;2294;51.818;8.484;2023-12-20T10:42:57;22.47;;;6.93;;
4563;SDS011;2294;51.818;8.484;2023-12-20T10:45:25;13.73;;;5.67;;
4563;SDS011;2294;51.818;8.484;2023-12-20T10:47:52;9.40;;;5.60;;
4563;SDS011;2294;51.818;8.484;2023-12-20T10:50:19;19.20;;;6.03;;
4563;SDS011;2294;51.818;8.484;2023-12-20T10:52:47;11.60;;;5.50;;
4563;SDS011;2294;51.818;8.484;2023-12-20T10:55:15;15.63;;;6.33;;
4563;SDS011;2294;51.818;8.484;2023-12-20T10:57:43;20.63;;;7.20;;
4563;SDS011;2294;51.818;8.484;2023-12-20T11:00:16;10.20;;;6.30;;
4563;SDS011;2294;51.818;8.484;2023-12-20T11:02:44;18.60;;;6.00;;
4563;SDS011;2294;51.818;8.484;2023-12-20T11:05:16;15.33;;;6.00;;
4563;SDS011;2294;51.818;8.484;2023-12-20T11:07:47;18.23;;;7.60;;
4563;SDS011;2294;51.818;8.484;2023-12-20T11:10:19;12.77;;;6.90;;
4563;SDS011;2294;51.818;8.484;2023-12-20T11:12:50;11.53;;;6.90;;
4563;SDS011;2294;51.818;8.484;2023-12-20T11:15:18;13.23;;;6.40;;
4563;SDS011;2294;51.818;8.484;2023-12-20T11:17:47;12.77;;;4.40;;
4563;SDS011;2294;51.818;8.484;2023-12-20T11:20:22;12.13;;;6.87;;
4563;SDS011;2294;51.818;8.484;2023-12-20T11:22:53;30.13;;;6.07;;
4563;SDS011;2294;51.818;8.484;2023-12-20T11:25:22;15.50;;;6.30;;
4563;SDS011;2294;51.818;8.484;2023-12-20T11:30:41;9.37;;;5.00;;
4563;SDS011;2294;51.818;8.484;2023-12-20T11:33:08;8.80;;;4.40;;
4563;SDS011;2294;51.818;8.484;2023-12-20T11:35:36;4.07;;;2.67;;
4563;SDS011;2294;51.818;8.484;2023-12-20T11:38:04;22.20;;;4.67;;
4563;SDS011;2294;51.818;8.484;2023-12-20T11:40:36;9.93;;;3.70;;
4563;SDS011;2294;51.818;8.484;2023-12-20T11:43:03;16.93;;;5.10;;
4563;SDS011;2294;51.818;8.484;2023-12-20T11:45:31;15.37;;;4.50;;
4563;SDS011;2294;51.818;8.484;2023-12-20T11:48:00;19.57;;;4.10;;
4563;SDS011;2294;51.818;8.484;2023-12-20T11:50:28;10.10;;;3.57;;
4563;SDS011;2294;51.818;8.484;2023-12-20T11:52:56;18.73;;;2.83;;
4563;SDS011;2294;51.818;8.484;2023-12-20T11:55:25;5.43;;;2.47;;
4563;SDS011;2294;51.818;8.484;2023-12-20T11:57:53;8.67;;;1.73;;
4563;SDS011;2294;51.818;8.484;2023-12-20T12:00:21;19.60;;;3.30;;
4563;SDS011;2294;51.818;8.484;2023-12-20T12:02:57;5.53;;;2.50;;
4563;SDS011;2294;51.818;8.484;2023-12-20T12:05:25;13.97;;;3.90;;
4563;SDS011;2294;51.818;8.484;2023-12-20T12:07:52;10.57;;;2.60;;
4563;SDS011;2294;51.818;8.484;2023-12-20T12:10:20;5.80;;;2.87;;
4563;SDS011;2294;51.818;8.484;2023-12-20T12:12:47;8.20;;;3.47;;
4563;SDS011;2294;51.818;8.484;2023-12-20T12:15:16;5.87;;;1.50;;
4563;SDS011;2294;51.818;8.484;2023-12-20T12:17:44;7.00;;;2.53;;
4563;SDS011;2294;51.818;8.484;2023-12-20T12:20:11;5.87;;;2.70;;
4563;SDS011;2294;51.818;8.484;2023-12-20T12:22:39;15.67;;;3.20;;
4563;SDS011;2294;51.818;8.484;2023-12-20T12:25:10;7.10;;;2.60;;
4563;SDS011;2294;51.818;8.484;2023-12-20T12:27:39;6.77;;;3.37;;
4563;SDS011;2294;51.818;8.484;2023-12-20T12:30:06;10.50;;;2.43;;
4563;SDS011;2294;51.818;8.484;2023-12-20T12:32:36;11.63;;;2.97;;
4563;SDS011;2294;51.818;8.484;2023-12-20T12:35:03;5.63;;;2.40;;
4563;SDS011;2294;51.818;8.484;2023-12-20T12:37:33;14.70;;;4.03;;
4563;SDS011;2294;51.818;8.484;2023-12-20T12:40:01;14.67;;;4.03;;
4563;SDS011;2294;51.818;8.484;2023-12-20T12:42:31;14.70;;;2.93;;
4563;SDS011;2294;51.818;8.484;2023-12-20T12:44:58;9.30;;;3.07;;
4563;SDS011;2294;51.818;8.484;2023-12-20T12:47:26;16.53;;;3.07;;
4563;SDS011;2294;51.818;8.484;2023-12-20T12:49:54;14.60;;;3.37;;
4563;SDS011;2294;51.818;8.484;2023-12-20T12:52:22;2.80;;;1.20;;
4563;SDS011;2294;51.818;8.484;2023-12-20T12:54:49;11.97;;;4.57;;
4563;SDS011;2294;51.818;8.484;2023-12-20T12:57:16;14.13;;;4.10;;
4563;SDS011;2294;51.818;8.484;2023-12-20T12:59:44;13.07;;;4.73;;
4563;SDS011;2294;51.818;8.484;2023-12-20T13:02:11;27.03;;;3.93;;
4563;SDS011;2294;51.818;8.484;2023-12-20T13:04:39;4.10;;;2.10;;
4563;SDS011;2294;51.818;8.484;2023-12-20T13:07:09;8.80;;;2.77;;
4563;SDS011;2294;51.818;8.484;2023-12-20T13:09:37;9.53;;;3.50;;
4563;SDS011;2294;51.818;8.484;2023-12-20T13:12:04;16.77;;;3.97;;
4563;SDS011;2294;51.818;8.484;2023-12-20T13:14:33;3.47;;;1.20;;
4563;SDS011;2294;51.818;8.484;2023-12-20T13:17:02;12.40;;;3.20;;
4563;SDS011;2294;51.818;8.484;2023-12-20T13:19:30;9.23;;;2.93;;
4563;SDS011;2294;51.818;8.484;2023-12-20T13:21:57;13.77;;;2.83;;
4563;SDS011;2294;51.818;8.484;2023-12-20T13:24:26;12.03;;;2.90;;
4563;SDS011;2294;51.818;8.484;2023-12-20T13:26:54;4.00;;;1.93;;
4563;SDS011;2294;51.818;8.484;2023-12-20T13:29:21;13.50;;;3.47;;
4563;SDS011;2294;51.818;8.484;2023-12-20T13:31:49;5.30;;;2.40;;
4563;SDS011;2294;51.818;8.484;2023-12-20T13:34:16;7.30;;;3.20;;
4563;SDS011;2294;51.818;8.484;2023-12-20T13:36:42;13.90;;;3.37;;
4563;SDS011;2294;51.818;8.484;2023-12-20T13:39:12;8.17;;;2.60;;
4563;SDS011;2294;51.818;8.484;2023-12-20T13:41:41;4.37;;;2.17;;
4563;SDS011;2294;51.818;8.484;2023-12-20T13:44:08;11.97;;;3.30;;
4563;SDS011;2294;51.818;8.484;2023-12-20T13:46:37;11.50;;;1.80;;
4563;SDS011;2294;51.818;8.484;2023-12-20T13:49:04;4.70;;;1.70;;
4563;SDS011;2294;51.818;8.484;2023-12-20T13:51:32;7.00;;;2.37;;
4563;SDS011;2294;51.818;8.484;2023-12-20T13:53:59;8.63;;;3.27;;
4563;SDS011;2294;51.818;8.484;2023-12-20T13:56:27;6.20;;;2.60;;
4563;SDS011;2294;51.818;8.484;2023-12-20T13:58:55;4.40;;;2.90;;
4563;SDS011;2294;51.818;8.484;2023-12-20T14:01:24;10.33;;;4.13;;
4563;SDS011;2294;51.818;8.484;2023-12-20T14:03:52;9.23;;;3.73;;
4563;SDS011;2294;51.818;8.484;2023-12-20T14:06:19;5.03;;;2.93;;
4563;SDS011;2294;51.818;8.484;2023-12-20T14:08:46;14.00;;;4.53;;
4563;SDS011;2294;51.818;8.484;2023-12-20T14:11:14;19.23;;;5.27;;
4563;SDS011;2294;51.818;8.484;2023-12-20T14:13:42;10.40;;;5.40;;
4563;SDS011;2294;51.818;8.484;2023-12-20T14:16:11;8.20;;;2.00;;
4563;SDS011;2294;51.818;8.484;2023-12-20T14:18:39;4.67;;;1.00;;
4563;SDS011;2294;51.818;8.484;2023-12-20T14:21:07;2.20;;;1.10;;
4563;SDS011;2294;51.818;8.484;2023-12-20T14:23:34;2.13;;;1.00;;
4563;SDS011;2294;51.818;8.484;2023-12-20T14:26:01;2.40;;;1.00;;
4563;SDS011;2294;51.818;8.484;2023-12-20T14:28:28;3.40;;;1.20;;
4563;SDS011;2294;51.818;8.484;2023-12-20T14:30:56;13.40;;;3.80;;
4563;SDS011;2294;51.818;8.484;2023-12-20T14:33:24;14.60;;;4.90;;
4563;SDS011;2294;51.818;8.484;2023-12-20T14:35:52;21.20;;;6.03;;
4563;SDS011;2294;51.818;8.484;2023-12-20T14:38:19;9.50;;;4.63;;
4563;SDS011;2294;51.818;8.484;2023-12-20T14:40:46;14.80;;;5.90;;
4563;SDS011;2294;51.818;8.484;2023-12-20T14:43:13;14.40;;;5.57;;
4563;SDS011;2294;51.818;8.484;2023-12-20T14:45:41;20.73;;;4.63;;
4563;SDS011;2294;51.818;8.484;2023-12-20T14:48:09;18.80;;;6.40;;
4563;SDS011;2294;51.818;8.484;2023-12-20T14:50:37;9.27;;;4.23;;
4563;SDS011;2294;51.818;8.484;2023-12-20T14:53:05;17.43;;;7.20;;
4563;SDS011;2294;51.818;8.484;2023-12-20T14:55:33;11.73;;;6.90;;
4563;SDS011;2294;51.818;8.484;2023-12-20T14:58:00;15.53;;;7.60;;
4563;SDS011;2294;51.818;8.484;2023-12-20T15:00:27;10.43;;;4.73;;
4563;SDS011;2294;51.818;8.484;2023-12-20T15:02:55;13.37;;;6.57;;
4563;SDS011;2294;51.818;8.484;2023-12-20T15:05:22;12.73;;;6.33;;
4563;SDS011;2294;51.818;8.484;2023-12-20T15:07:51;13.67;;;7.20;;
4563;SDS011;2294;51.818;8.484;2023-12-20T15:10:18;12.23;;;6.10;;
4563;SDS011;2294;51.818;8.484;2023-12-20T15:12:46;17.27;;;6.57;;